createdAt,value
2018-08-28T00:02:22.798Z,14.50
2018-08-28T00:04:50.105Z,14.40
2018-08-28T00:07:17.290Z,14.40
2018-08-28T00:09:44.522Z,14.30
2018-08-28T00:12:11.759Z,14.30
2018-08-28T00:14:38.980Z,14.30
2018-08-28T00:17:06.257Z,14.30
2018-08-28T00:19:33.489Z,14.20
2018-08-28T00:22:00.724Z,14.20
2018-08-28T00:24:27.958Z,14.20
2018-08-28T00:26:55.204Z,14.10
2018-08-28T00:29:22.449Z,14.10
2018-08-28T00:31:49.706Z,14.10
2018-08-28T00:34:16.930Z,14.10
2018-08-28T00:36:44.149Z,14.10
2018-08-28T00:39:11.370Z,14.10
2018-08-28T00:41:38.594Z,14.10
2018-08-28T00:44:05.885Z,14.10
2018-08-28T00:46:33.111Z,14.10
2018-08-28T00:49:00.325Z,14.00
2018-08-28T00:51:27.574Z,14.00
2018-08-28T00:53:54.809Z,14.00
2018-08-28T00:56:22.185Z,14.00
2018-08-28T00:58:49.401Z,14.00
2018-08-28T01:01:16.634Z,14.00
2018-08-28T01:03:43.843Z,14.00
2018-08-28T01:06:11.083Z,14.00
2018-08-28T01:08:38.321Z,14.00
2018-08-28T01:11:06.047Z,13.90
2018-08-28T01:13:33.253Z,13.90
2018-08-28T01:16:00.495Z,13.90
2018-08-28T01:18:27.691Z,13.80
2018-08-28T01:20:54.935Z,13.80
2018-08-28T01:23:22.172Z,13.80
2018-08-28T01:25:49.435Z,13.80
2018-08-28T01:28:16.707Z,13.70
2018-08-28T01:30:43.935Z,13.60
2018-08-28T01:33:11.171Z,13.60
2018-08-28T01:35:38.405Z,13.60
2018-08-28T01:38:05.663Z,13.60
2018-08-28T01:40:32.890Z,13.50
2018-08-28T01:43:00.382Z,13.50
2018-08-28T01:45:27.646Z,13.40
2018-08-28T01:47:54.877Z,13.40
2018-08-28T01:50:22.193Z,13.30
2018-08-28T01:52:49.387Z,13.30
2018-08-28T01:55:16.623Z,13.20
2018-08-28T01:57:43.892Z,13.20
2018-08-28T02:00:11.124Z,13.10
2018-08-28T02:02:38.523Z,13.10
2018-08-28T02:05:05.802Z,13.00
2018-08-28T02:07:33.054Z,13.00
2018-08-28T02:10:00.281Z,12.90
2018-08-28T02:12:27.485Z,12.90
2018-08-28T02:14:54.694Z,12.90
2018-08-28T02:17:21.939Z,12.80
2018-08-28T02:19:49.166Z,12.80
2018-08-28T02:22:16.403Z,12.70
2018-08-28T02:24:43.637Z,12.70
2018-08-28T02:27:10.866Z,12.60
2018-08-28T02:29:38.090Z,12.60
2018-08-28T02:32:05.306Z,12.60
2018-08-28T02:34:32.536Z,12.50
2018-08-28T02:36:59.737Z,12.50
2018-08-28T02:39:26.977Z,12.50
2018-08-28T02:41:54.185Z,12.50
2018-08-28T02:44:21.424Z,12.50
2018-08-28T02:46:48.666Z,12.40
2018-08-28T02:49:15.882Z,12.40
2018-08-28T02:51:43.099Z,12.30
2018-08-28T02:54:10.367Z,12.30
2018-08-28T02:56:37.594Z,12.30
2018-08-28T02:59:05.594Z,12.30
2018-08-28T03:01:32.793Z,12.20
2018-08-28T03:04:00.046Z,12.20
2018-08-28T03:06:27.262Z,12.10
2018-08-28T03:08:54.498Z,12.10
2018-08-28T03:11:21.731Z,12.10
2018-08-28T03:13:48.978Z,12.00
2018-08-28T03:16:16.243Z,11.90
2018-08-28T03:18:43.484Z,11.90
2018-08-28T03:21:10.727Z,11.90
2018-08-28T03:23:38.413Z,11.80
2018-08-28T03:26:05.802Z,11.80
2018-08-28T03:28:33.023Z,11.80
2018-08-28T03:31:00.256Z,11.70
2018-08-28T03:33:27.461Z,11.70
2018-08-28T03:35:54.677Z,11.60
2018-08-28T03:38:21.921Z,11.60
2018-08-28T03:40:49.300Z,11.60
2018-08-28T03:43:16.736Z,11.50
2018-08-28T03:45:43.953Z,11.50
2018-08-28T03:48:11.181Z,11.50
2018-08-28T03:50:38.407Z,11.40
2018-08-28T03:53:05.664Z,11.40
2018-08-28T03:55:32.933Z,11.40
2018-08-28T03:58:00.107Z,11.30
2018-08-28T04:00:27.329Z,11.30
2018-08-28T04:02:54.550Z,11.30
2018-08-28T04:05:21.756Z,11.20
2018-08-28T04:07:48.988Z,11.20
2018-08-28T04:10:16.199Z,11.20
2018-08-28T04:12:43.430Z,11.10
2018-08-28T04:15:10.659Z,11.10
2018-08-28T04:17:43.276Z,11.10
2018-08-28T04:20:10.499Z,11.00
2018-08-28T04:22:37.737Z,11.00
2018-08-28T04:25:04.996Z,11.00
2018-08-28T04:27:32.221Z,10.90
2018-08-28T04:29:59.441Z,10.90
2018-08-28T04:32:26.666Z,10.90
2018-08-28T04:34:53.890Z,10.80
2018-08-28T04:37:21.117Z,10.80
2018-08-28T04:39:48.355Z,10.80
2018-08-28T04:42:15.607Z,10.70
2018-08-28T04:44:42.829Z,10.70
2018-08-28T04:47:10.107Z,10.70
2018-08-28T04:49:37.321Z,10.70
2018-08-28T04:52:04.918Z,10.60
2018-08-28T04:54:32.169Z,10.60
2018-08-28T04:56:59.403Z,10.60
2018-08-28T04:59:26.689Z,10.60
2018-08-28T05:01:53.897Z,10.50
2018-08-28T05:04:21.121Z,10.50
2018-08-28T05:06:48.342Z,10.50
2018-08-28T05:09:15.571Z,10.50
2018-08-28T05:11:42.788Z,10.50
2018-08-28T05:14:10.018Z,10.50
2018-08-28T05:16:37.256Z,10.50
2018-08-28T05:19:04.521Z,10.50
2018-08-28T05:21:31.802Z,10.50
2018-08-28T05:23:59.029Z,10.50
2018-08-28T05:26:26.234Z,10.50
2018-08-28T05:28:53.437Z,10.50
2018-08-28T05:31:20.670Z,10.50
2018-08-28T05:33:47.891Z,10.50
2018-08-28T05:36:15.102Z,10.50
2018-08-28T05:38:42.314Z,10.50
2018-08-28T05:41:09.534Z,10.60
2018-08-28T05:43:37.249Z,10.60
2018-08-28T05:46:04.478Z,10.60
2018-08-28T05:48:31.681Z,10.70
2018-08-28T05:50:58.909Z,10.80
2018-08-28T05:53:26.131Z,10.80
2018-08-28T05:55:53.458Z,10.90
2018-08-28T05:58:20.619Z,11.00
2018-08-28T06:00:47.887Z,11.10
2018-08-28T06:03:15.209Z,11.10
2018-08-28T06:05:42.634Z,11.20
2018-08-28T06:08:09.883Z,11.30
2018-08-28T06:10:37.154Z,11.40
2018-08-28T06:13:04.473Z,11.50
2018-08-28T06:15:31.704Z,11.50
2018-08-28T06:17:58.897Z,11.60
2018-08-28T06:20:26.129Z,11.70
2018-08-28T06:22:53.366Z,11.70
2018-08-28T06:25:20.543Z,11.80
2018-08-28T06:27:47.783Z,11.90
2018-08-28T06:30:15.007Z,12.00
2018-08-28T06:32:42.230Z,12.10
2018-08-28T06:35:09.469Z,12.20
2018-08-28T06:37:36.695Z,12.30
2018-08-28T06:40:03.974Z,12.50
2018-08-28T06:42:31.229Z,12.60
2018-08-28T06:44:58.452Z,12.70
2018-08-28T06:47:25.774Z,12.90
2018-08-28T06:49:53.045Z,13.10
2018-08-28T06:52:20.259Z,13.20
2018-08-28T06:54:47.461Z,13.40
2018-08-28T06:57:14.745Z,13.60
2018-08-28T06:59:42.015Z,13.80
2018-08-28T07:02:09.218Z,14.00
2018-08-28T07:04:36.438Z,14.20
2018-08-28T07:07:03.722Z,14.40
2018-08-28T07:09:30.974Z,14.60
2018-08-28T07:11:58.259Z,14.80
2018-08-28T07:14:25.474Z,15.00
2018-08-28T07:16:52.707Z,15.30
2018-08-28T07:19:19.937Z,15.50
2018-08-28T07:21:47.171Z,15.70
2018-08-28T07:24:14.382Z,15.90
2018-08-28T07:26:41.621Z,16.20
2018-08-28T07:29:08.853Z,16.40
2018-08-28T07:31:36.116Z,16.60
2018-08-28T07:34:03.439Z,16.80
2018-08-28T07:36:30.667Z,17.00
2018-08-28T07:38:57.899Z,17.30
2018-08-28T07:41:25.120Z,17.50
2018-08-28T07:43:52.357Z,17.70
2018-08-28T07:46:19.586Z,17.90
2018-08-28T07:48:46.834Z,18.20
2018-08-28T07:51:14.074Z,18.40
2018-08-28T07:53:41.391Z,18.60
2018-08-28T07:56:08.561Z,18.80
2018-08-28T07:58:35.823Z,19.10
2018-08-28T08:01:03.098Z,19.30
2018-08-28T08:03:30.336Z,19.50
2018-08-28T08:05:57.561Z,19.70
2018-08-28T08:08:24.799Z,20.00
2018-08-28T08:10:52.546Z,20.20
2018-08-28T08:13:19.812Z,20.40
2018-08-28T08:15:47.255Z,20.60
2018-08-28T08:18:14.474Z,20.80
2018-08-28T08:20:41.714Z,21.10
2018-08-28T08:23:09.106Z,21.30
2018-08-28T08:25:36.323Z,21.50
2018-08-28T08:28:03.748Z,21.70
2018-08-28T08:30:30.866Z,21.90
2018-08-28T08:32:58.135Z,22.10
2018-08-28T08:35:25.400Z,22.30
2018-08-28T08:37:52.617Z,22.50
2018-08-28T08:40:19.854Z,22.70
2018-08-28T08:42:47.094Z,22.90
2018-08-28T08:45:14.305Z,23.10
2018-08-28T08:47:41.543Z,23.30
2018-08-28T08:50:09.077Z,23.50
2018-08-28T08:52:36.295Z,23.70
2018-08-28T08:55:04.039Z,23.90
2018-08-28T08:57:31.192Z,24.10
2018-08-28T08:59:58.369Z,24.30
2018-08-28T09:02:25.607Z,24.50
2018-08-28T09:04:52.854Z,24.70
2018-08-28T09:07:20.069Z,24.80
2018-08-28T09:09:47.293Z,25.00
2018-08-28T09:12:14.562Z,25.20
2018-08-28T09:14:41.789Z,25.30
2018-08-28T09:17:09.024Z,25.50
2018-08-28T09:19:36.267Z,25.70
2018-08-28T09:22:03.490Z,25.90
2018-08-28T09:24:30.711Z,26.00
2018-08-28T09:26:57.939Z,26.20
2018-08-28T09:29:25.171Z,26.30
2018-08-28T09:31:52.387Z,26.50
2018-08-28T09:34:19.604Z,26.70
2018-08-28T09:36:46.822Z,26.80
2018-08-28T09:39:14.062Z,27.00
2018-08-28T09:41:41.282Z,27.10
2018-08-28T09:44:08.498Z,27.30
2018-08-28T09:46:35.707Z,27.40
2018-08-28T09:49:02.942Z,27.60
2018-08-28T09:51:30.198Z,27.80
2018-08-28T09:53:57.427Z,27.90
2018-08-28T09:56:24.700Z,28.10
2018-08-28T09:58:51.905Z,28.20
2018-08-28T10:01:24.868Z,28.30
2018-08-28T10:03:52.102Z,28.50
2018-08-28T10:06:19.357Z,28.60
2018-08-28T10:08:46.627Z,28.70
2018-08-28T10:11:13.863Z,28.80
2018-08-28T10:13:41.094Z,28.90
2018-08-28T10:16:08.321Z,29.10
2018-08-28T10:18:35.537Z,29.20
2018-08-28T10:21:02.800Z,29.30
2018-08-28T10:23:30.043Z,29.40
2018-08-28T10:25:57.277Z,29.40
2018-08-28T10:28:24.503Z,29.40
2018-08-28T10:30:51.730Z,29.30
2018-08-28T10:33:18.961Z,29.20
2018-08-28T10:35:46.173Z,29.10
2018-08-28T10:38:13.521Z,29.10
2018-08-28T10:40:40.630Z,29.00
2018-08-28T10:43:07.853Z,29.00
2018-08-28T10:45:35.122Z,28.90
2018-08-28T10:48:02.352Z,28.80
2018-08-28T10:50:29.751Z,28.70
2018-08-28T10:52:57.113Z,28.70
2018-08-28T10:55:24.213Z,28.60
2018-08-28T10:57:51.433Z,28.60
2018-08-28T11:00:18.669Z,28.60
2018-08-28T11:02:45.913Z,28.60
2018-08-28T11:05:13.137Z,28.70
2018-08-28T11:07:40.357Z,28.80
2018-08-28T11:10:08.203Z,28.80
2018-08-28T11:12:35.428Z,28.90
2018-08-28T11:15:02.695Z,29.00
2018-08-28T11:17:29.913Z,29.00
2018-08-28T11:19:57.325Z,29.10
2018-08-28T11:22:25.006Z,29.10
2018-08-28T11:24:52.170Z,29.10
2018-08-28T11:27:19.405Z,29.10
2018-08-28T11:29:46.622Z,29.20
2018-08-28T11:32:13.845Z,29.20
2018-08-28T11:34:41.071Z,29.30
2018-08-28T11:37:08.299Z,29.30
2018-08-28T11:39:35.545Z,29.30
2018-08-28T11:42:02.834Z,29.30
2018-08-28T11:44:30.051Z,29.30
2018-08-28T11:46:57.316Z,29.30
2018-08-28T11:49:24.527Z,29.40
2018-08-28T11:51:51.869Z,29.40
2018-08-28T11:54:19.147Z,29.50
2018-08-28T11:56:46.410Z,29.50
2018-08-28T11:59:13.628Z,29.60
2018-08-28T12:01:40.983Z,29.70
2018-08-28T12:04:08.212Z,29.70
2018-08-28T12:06:35.565Z,29.70
2018-08-28T12:09:03.130Z,29.70
2018-08-28T12:11:30.354Z,29.70
2018-08-28T12:13:57.577Z,29.60
2018-08-28T12:16:24.808Z,29.60
2018-08-28T12:18:52.039Z,29.60
2018-08-28T12:21:19.263Z,29.70
2018-08-28T12:23:46.480Z,29.70
2018-08-28T12:26:13.722Z,29.70
2018-08-28T12:28:40.938Z,29.80
2018-08-28T12:31:08.191Z,29.80
2018-08-28T12:33:35.418Z,29.90
2018-08-28T12:36:02.649Z,29.90
2018-08-28T12:38:29.893Z,29.90
2018-08-28T12:40:57.118Z,30.00
2018-08-28T12:43:24.345Z,30.00
2018-08-28T12:45:51.706Z,30.10
2018-08-28T12:48:18.945Z,30.10
2018-08-28T12:50:46.170Z,30.10
2018-08-28T12:53:13.394Z,30.10
2018-08-28T12:55:40.634Z,30.10
2018-08-28T12:58:07.858Z,30.10
2018-08-28T13:00:35.159Z,30.10
2018-08-28T13:03:02.321Z,30.10
2018-08-28T13:05:29.542Z,30.10
2018-08-28T13:07:56.754Z,30.10
2018-08-28T13:10:24.137Z,30.10
2018-08-28T13:12:51.375Z,30.10
2018-08-28T13:15:18.676Z,30.10
2018-08-28T13:17:45.902Z,30.10
2018-08-28T13:20:13.144Z,30.10
2018-08-28T13:22:40.379Z,30.10
2018-08-28T13:25:08.462Z,30.10
2018-08-28T13:27:35.813Z,30.10
2018-08-28T13:30:03.415Z,30.10
2018-08-28T13:32:30.644Z,30.10
2018-08-28T13:34:57.882Z,30.10
2018-08-28T13:37:25.245Z,30.10
2018-08-28T13:39:52.489Z,30.00
2018-08-28T13:42:19.709Z,30.00
2018-08-28T13:44:46.934Z,30.00
2018-08-28T13:47:14.276Z,30.00
2018-08-28T13:49:41.402Z,29.90
2018-08-28T13:52:08.673Z,29.90
2018-08-28T13:54:35.904Z,29.90
2018-08-28T13:57:03.163Z,29.90
2018-08-28T13:59:30.402Z,29.90
2018-08-28T14:01:57.629Z,29.80
2018-08-28T14:04:24.858Z,29.80
2018-08-28T14:06:52.069Z,29.80
2018-08-28T14:09:19.315Z,29.70
2018-08-28T14:11:46.525Z,29.70
2018-08-28T14:14:13.758Z,29.60
2018-08-28T14:16:40.974Z,29.60
2018-08-28T14:19:08.431Z,29.50
2018-08-28T14:21:35.661Z,29.40
2018-08-28T14:24:02.946Z,29.40
2018-08-28T14:26:30.239Z,29.30
2018-08-28T14:28:57.480Z,29.20
2018-08-28T14:31:24.762Z,29.20
2018-08-28T14:33:51.989Z,29.10
2018-08-28T14:36:19.217Z,29.00
2018-08-28T14:38:46.451Z,28.90
2018-08-28T14:41:13.690Z,28.90
2018-08-28T14:43:40.977Z,28.80
2018-08-28T14:46:08.689Z,28.70
2018-08-28T14:48:36.101Z,28.70
2018-08-28T14:51:03.365Z,28.60
2018-08-28T14:53:30.623Z,28.50
2018-08-28T14:55:57.855Z,28.50
2018-08-28T14:58:25.086Z,28.40
2018-08-28T15:00:52.331Z,28.40
2018-08-28T15:03:19.574Z,28.30
2018-08-28T15:05:46.809Z,28.20
2018-08-28T15:08:14.033Z,28.20
2018-08-28T15:10:41.266Z,28.10
2018-08-28T15:13:08.498Z,28.00
2018-08-28T15:15:35.825Z,28.00
2018-08-28T15:18:03.070Z,27.90
2018-08-28T15:20:30.302Z,27.90
2018-08-28T15:22:57.578Z,27.80
2018-08-28T15:25:24.822Z,27.70
2018-08-28T15:27:52.041Z,27.70
2018-08-28T15:30:19.301Z,27.60
2018-08-28T15:32:46.639Z,27.50
2018-08-28T15:35:13.946Z,27.50
2018-08-28T15:37:41.178Z,27.40
2018-08-28T15:40:08.457Z,27.40
2018-08-28T15:42:35.699Z,27.30
2018-08-28T15:45:02.966Z,27.30
2018-08-28T15:47:30.181Z,27.20
2018-08-28T15:49:57.397Z,27.20
2018-08-28T15:52:24.626Z,27.10
2018-08-28T15:54:51.874Z,27.00
2018-08-28T15:57:19.116Z,27.00
2018-08-28T15:59:46.344Z,26.90
2018-08-28T16:02:13.607Z,26.90
2018-08-28T16:04:40.930Z,26.80
2018-08-28T16:07:08.147Z,26.80
2018-08-28T16:09:35.373Z,26.70
2018-08-28T16:12:02.606Z,26.60
2018-08-28T16:14:29.810Z,26.60
2018-08-28T16:16:57.041Z,26.50
2018-08-28T16:19:24.261Z,26.50
2018-08-28T16:21:53.513Z,26.40
2018-08-28T16:24:21.374Z,26.40
2018-08-28T16:26:48.610Z,26.30
2018-08-28T16:29:15.855Z,26.30
2018-08-28T16:31:43.078Z,26.20
2018-08-28T16:34:10.449Z,26.20
2018-08-28T16:36:38.002Z,26.10
2018-08-28T16:39:06.687Z,26.10
2018-08-28T16:41:34.259Z,26.00
2018-08-28T16:44:01.545Z,26.00
2018-08-28T16:46:28.806Z,25.90
2018-08-28T16:48:56.039Z,25.90
2018-08-28T16:51:23.277Z,25.80
2018-08-28T16:53:50.495Z,25.80
2018-08-28T16:56:17.961Z,25.70
2018-08-28T16:58:45.191Z,25.70
2018-08-28T17:01:13.349Z,25.60
2018-08-28T17:03:40.555Z,25.50
2018-08-28T17:06:07.777Z,25.50
2018-08-28T17:08:35.025Z,25.40
2018-08-28T17:11:02.246Z,25.40
2018-08-28T17:13:29.471Z,25.30
2018-08-28T17:15:56.705Z,25.20
2018-08-28T17:18:23.933Z,25.20
2018-08-28T17:20:51.181Z,25.10
2018-08-28T17:23:18.429Z,25.00
2018-08-28T17:25:45.683Z,25.00
2018-08-28T17:28:12.945Z,24.90
2018-08-28T17:30:40.176Z,24.80
2018-08-28T17:33:07.485Z,24.70
2018-08-28T17:35:34.666Z,24.60
2018-08-28T17:38:01.954Z,24.50
2018-08-28T17:40:29.174Z,24.40
2018-08-28T17:42:56.401Z,24.30
2018-08-28T17:45:23.658Z,24.20
2018-08-28T17:47:50.914Z,24.10
2018-08-28T17:50:18.130Z,24.00
2018-08-28T17:52:45.359Z,23.90
2018-08-28T17:55:12.590Z,23.80
2018-08-28T17:57:39.833Z,23.60
2018-08-28T18:00:07.374Z,23.50
2018-08-28T18:02:34.594Z,23.40
2018-08-28T18:05:01.838Z,23.30
2018-08-28T18:07:29.069Z,23.20
2018-08-28T18:09:56.281Z,23.10
2018-08-28T18:12:23.501Z,23.00
2018-08-28T18:14:50.748Z,22.80
2018-08-28T18:17:17.993Z,22.70
2018-08-28T18:19:45.277Z,22.60
2018-08-28T18:22:12.519Z,22.50
2018-08-28T18:24:39.735Z,22.30
2018-08-28T18:27:06.955Z,22.20
2018-08-28T18:29:34.174Z,22.10
2018-08-28T18:32:01.390Z,22.00
2018-08-28T18:34:28.680Z,21.80
2018-08-28T18:36:55.842Z,21.70
2018-08-28T18:39:23.071Z,21.50
2018-08-28T18:41:50.303Z,21.40
2018-08-28T18:44:17.537Z,21.30
2018-08-28T18:46:44.767Z,21.20
2018-08-28T18:49:12.021Z,21.00
2018-08-28T18:51:39.254Z,20.90
2018-08-28T18:54:06.489Z,20.80
2018-08-28T18:56:33.739Z,20.70
2018-08-28T18:59:01.117Z,20.60
2018-08-28T19:01:28.357Z,20.50
2018-08-28T19:03:55.573Z,20.40
2018-08-28T19:06:22.788Z,20.20
2018-08-28T19:08:50.271Z,20.10
2018-08-28T19:11:17.459Z,20.00
2018-08-28T19:13:45.205Z,19.90
2018-08-28T19:16:12.426Z,19.80
2018-08-28T19:18:39.669Z,19.70
2018-08-28T19:21:06.890Z,19.60
2018-08-28T19:23:34.126Z,19.50
2018-08-28T19:26:01.373Z,19.40
2018-08-28T19:28:28.594Z,19.30
2018-08-28T19:30:55.796Z,19.20
2018-08-28T19:33:23.032Z,19.10
2018-08-28T19:35:50.453Z,19.00
2018-08-28T19:38:17.682Z,18.90
2018-08-28T19:40:44.901Z,18.80
2018-08-28T19:43:12.162Z,18.70
2018-08-28T19:45:39.685Z,18.60
2018-08-28T19:48:06.909Z,18.50
2018-08-28T19:50:34.142Z,18.40
2018-08-28T19:53:01.545Z,18.30
2018-08-28T19:55:28.769Z,18.20
2018-08-28T19:57:56.010Z,18.20
2018-08-28T20:00:23.268Z,18.10
2018-08-28T20:02:50.478Z,18.00
2018-08-28T20:05:17.715Z,17.90
2018-08-28T20:07:44.955Z,17.80
2018-08-28T20:10:12.224Z,17.70
2018-08-28T20:12:39.445Z,17.60
2018-08-28T20:15:06.722Z,17.50
2018-08-28T20:17:33.968Z,17.50
2018-08-28T20:20:01.198Z,17.40
2018-08-28T20:22:28.445Z,17.30
2018-08-28T20:24:55.673Z,17.20
2018-08-28T20:27:22.918Z,17.10
2018-08-28T20:29:50.173Z,17.10
2018-08-28T20:32:17.393Z,17.00
2018-08-28T20:34:44.605Z,16.90
2018-08-28T20:37:11.836Z,16.80
2018-08-28T20:39:39.103Z,16.80
2018-08-28T20:42:06.346Z,16.70
2018-08-28T20:44:33.592Z,16.60
2018-08-28T20:47:00.810Z,16.60
2018-08-28T20:49:28.038Z,16.50
2018-08-28T20:51:55.285Z,16.40
2018-08-28T20:54:22.570Z,16.40
2018-08-28T20:56:49.795Z,16.30
2018-08-28T20:59:17.022Z,16.20
2018-08-28T21:01:44.234Z,16.10
2018-08-28T21:04:11.461Z,16.10
2018-08-28T21:06:38.740Z,16.00
2018-08-28T21:09:06.454Z,16.00
2018-08-28T21:11:33.816Z,15.90
2018-08-28T21:14:01.158Z,15.80
2018-08-28T21:16:28.414Z,15.80
2018-08-28T21:18:55.642Z,15.70
2018-08-28T21:21:22.869Z,15.60
2018-08-28T21:23:50.095Z,15.60
2018-08-28T21:26:17.329Z,15.50
2018-08-28T21:28:44.578Z,15.50
2018-08-28T21:31:11.794Z,15.40
2018-08-28T21:33:39.023Z,15.40
2018-08-28T21:36:06.302Z,15.30
2018-08-28T21:38:33.542Z,15.20
2018-08-28T21:41:00.777Z,15.20
2018-08-28T21:43:28.022Z,15.10
2018-08-28T21:45:55.518Z,15.10
2018-08-28T21:48:22.811Z,15.00
2018-08-28T21:50:49.983Z,15.00
2018-08-28T21:53:17.210Z,14.90
2018-08-28T21:55:44.457Z,14.80
2018-08-28T21:58:11.695Z,14.80
2018-08-28T22:00:38.969Z,14.70
2018-08-28T22:03:06.270Z,14.70
2018-08-28T22:05:33.506Z,14.60
2018-08-28T22:08:02.211Z,14.60
2018-08-28T22:10:30.019Z,14.50
2018-08-28T22:12:57.289Z,14.50
2018-08-28T22:15:24.516Z,14.50
2018-08-28T22:17:51.947Z,14.40
2018-08-28T22:20:19.185Z,14.30
2018-08-28T22:22:46.674Z,14.30
2018-08-28T22:25:13.993Z,14.30
2018-08-28T22:27:41.202Z,14.20
2018-08-28T22:30:09.125Z,14.10
2018-08-28T22:32:36.330Z,14.10
2018-08-28T22:35:03.725Z,14.10
2018-08-28T22:37:30.953Z,14.00
2018-08-28T22:39:58.141Z,14.00
2018-08-28T22:42:25.325Z,13.90
2018-08-28T22:44:52.497Z,13.80
2018-08-28T22:47:19.701Z,13.80
2018-08-28T22:49:46.889Z,13.70
2018-08-28T22:52:14.090Z,13.70
2018-08-28T22:54:41.434Z,13.70
2018-08-28T22:57:08.659Z,13.60
2018-08-28T22:59:35.833Z,13.60
2018-08-28T23:02:03.293Z,13.50
2018-08-28T23:04:30.501Z,13.50
2018-08-28T23:06:57.693Z,13.40
2018-08-28T23:09:24.886Z,13.40
2018-08-28T23:11:52.105Z,13.40
2018-08-28T23:14:19.312Z,13.30
2018-08-28T23:16:46.514Z,13.30
2018-08-28T23:19:13.734Z,13.20
2018-08-28T23:21:40.950Z,13.20
2018-08-28T23:24:08.153Z,13.20
2018-08-28T23:26:35.350Z,13.10
2018-08-28T23:29:02.594Z,13.10
2018-08-28T23:31:29.778Z,13.10
2018-08-28T23:33:56.986Z,13.00
2018-08-28T23:36:24.181Z,13.00
2018-08-28T23:38:51.382Z,13.00
2018-08-28T23:41:18.557Z,12.90
2018-08-28T23:43:45.803Z,12.90
2018-08-28T23:46:12.997Z,12.80
2018-08-28T23:48:40.197Z,12.80
2018-08-28T23:51:07.387Z,12.80
2018-08-28T23:53:34.609Z,12.80
2018-08-28T23:56:01.823Z,12.70
2018-08-28T23:58:29.017Z,12.60
